Lake San Marcos, California
Current Conditions -  °F | °C
As of 8:53 AM on Friday 28 Nov 2014 (Local Time) from KCRQ Reporting Station
Clear Clear  
Wind Chill: 71°   Ceiling: Unl
Heat Index: 71°   Visibility: 10mi
Dew Point: 29°   Wind: 0mph
Humidity: 21%   Direction: NA
Pressure: 30"   Gusts: NA
Location:  33.1507°N, 117.174°W
Report Text: KCRQ 281653Z 00000KT 10SM CLR 22/M02 A3000 RMK AO2 SLP155 T02171017
Loading
Personal Weather Stations






























Interactive Weather Map New forecast layout! Learn more

10-Day Weather Forecast

Advertisements
Track Severe Weather on mobile